EWG46M EDDS-EGKK
Flight info
| Callsign | EWG46M |
|---|---|
| Flight time | 1h 17m |
| Altitude | 34000 |
| Route | VESID4B VESID Y127 BANIM L608 LIRSU DCT SPI DCT DENUT L610 TEBRA |
| Aircraft | A21N/M-SDE2E3FGHIRWXY/LB1 |
Departure
| Time | 2026-05-05 17:20 |
|---|---|
| Airport | Stuttgart Airport (EDDS) |
Arrival
| Time | 2026-05-05 18:38 |
|---|---|
| Airport | London Gatwick Airport (EGKK) |
| Time | Latitude | Longitude | Altitude | Speed | Heading |
|---|---|---|---|---|---|
| 2026-05-05 16:32 | 48.68948 | 9.19717 | 1315 ft | 0 kts | 344° |
| 2026-05-05 17:09 | 48.68945 | 9.19718 | 1315 ft | 2 kts | 344° |
| 2026-05-05 17:10 | 48.68929 | 9.19724 | 1313 ft | 2 kts | 348° |
| 2026-05-05 17:10 | 48.68913 | 9.19726 | 1312 ft | 2 kts | 359° |
| 2026-05-05 17:10 | 48.68897 | 9.19725 | 1311 ft | 2 kts | 12° |
| 2026-05-05 17:10 | 48.68881 | 9.19717 | 1311 ft | 2 kts | 31° |
| 2026-05-05 17:11 | 48.68869 | 9.19700 | 1311 ft | 2 kts | 56° |
| 2026-05-05 17:11 | 48.68864 | 9.19683 | 1311 ft | 0 kts | 71° |
| 2026-05-05 17:11 | 48.68863 | 9.19682 | 1311 ft | 0 kts | 71° |
| 2026-05-05 17:12 | 48.68864 | 9.19683 | 1311 ft | 0 kts | 71° |
| 2026-05-05 17:12 | 48.68871 | 9.19716 | 1310 ft | 7 kts | 71° |
| 2026-05-05 17:12 | 48.68890 | 9.19815 | 1307 ft | 13 kts | 83° |
| 2026-05-05 17:13 | 48.68830 | 9.19909 | 1301 ft | 15 kts | 137° |
| 2026-05-05 17:13 | 48.68836 | 9.20044 | 1297 ft | 16 kts | 66° |
| 2026-05-05 17:13 | 48.68873 | 9.20217 | 1293 ft | 20 kts | 74° |
| 2026-05-05 17:13 | 48.68917 | 9.20447 | 1288 ft | 25 kts | 73° |
| 2026-05-05 17:14 | 48.68970 | 9.20729 | 1280 ft | 30 kts | 74° |
| 2026-05-05 17:14 | 48.69028 | 9.21036 | 1274 ft | 33 kts | 73° |
| 2026-05-05 17:14 | 48.69092 | 9.21375 | 1273 ft | 35 kts | 74° |
| 2026-05-05 17:14 | 48.69162 | 9.21742 | 1260 ft | 37 kts | 74° |
| 2026-05-05 17:15 | 48.69234 | 9.22111 | 1254 ft | 38 kts | 73° |
| 2026-05-05 17:15 | 48.69304 | 9.22491 | 1239 ft | 39 kts | 73° |
| 2026-05-05 17:15 | 48.69380 | 9.22890 | 1231 ft | 40 kts | 73° |
| 2026-05-05 17:15 | 48.69456 | 9.23291 | 1231 ft | 38 kts | 74° |
| 2026-05-05 17:16 | 48.69521 | 9.23638 | 1257 ft | 29 kts | 74° |
| 2026-05-05 17:16 | 48.69568 | 9.23887 | 1277 ft | 21 kts | 74° |
| 2026-05-05 17:16 | 48.69606 | 9.24080 | 1274 ft | 18 kts | 74° |
| 2026-05-05 17:16 | 48.69573 | 9.24256 | 1272 ft | 20 kts | 120° |
| 2026-05-05 17:17 | 48.69555 | 9.24286 | 1261 ft | 5 kts | 147° |
| 2026-05-05 17:17 | 48.69501 | 9.24316 | 1256 ft | 0 kts | 163° |
| 2026-05-05 17:18 | 48.69470 | 9.24330 | 1231 ft | 15 kts | 163° |
| 2026-05-05 17:18 | 48.69405 | 9.24335 | 1193 ft | 4 kts | 211° |
| 2026-05-05 17:18 | 48.69390 | 9.24310 | 1194 ft | 3 kts | 236° |
| 2026-05-05 17:18 | 48.69386 | 9.24291 | 1194 ft | 0 kts | 253° |
| 2026-05-05 17:19 | 48.69381 | 9.24267 | 1195 ft | 18 kts | 253° |
| 2026-05-05 17:19 | 48.69306 | 9.23885 | 1202 ft | 69 kts | 255° |
| 2026-05-05 17:20 | 48.69125 | 9.22933 | 1221 ft | 125 kts | 255° |
| 2026-05-05 17:20 | 48.68830 | 9.21390 | 1268 ft | 176 kts | 254° |
| 2026-05-05 17:20 | 48.68466 | 9.19522 | 1525 ft | 192 kts | 253° |
| 2026-05-05 17:20 | 48.68104 | 9.17528 | 1990 ft | 194 kts | 255° |
| 2026-05-05 17:21 | 48.67761 | 9.15670 | 2970 ft | 171 kts | 253° |
| 2026-05-05 17:21 | 48.67419 | 9.13939 | 3568 ft | 181 kts | 252° |
| 2026-05-05 17:21 | 48.67054 | 9.11964 | 3904 ft | 206 kts | 259° |
| 2026-05-05 17:22 | 48.68020 | 9.07701 | 4844 ft | 240 kts | 313° |
| 2026-05-05 17:22 | 48.69458 | 9.06351 | 4985 ft | 250 kts | 333° |
| 2026-05-05 17:22 | 48.71171 | 9.05425 | 5026 ft | 270 kts | 338° |
| 2026-05-05 17:22 | 48.73001 | 9.04553 | 5568 ft | 279 kts | 338° |
| 2026-05-05 17:23 | 48.74850 | 9.03666 | 6574 ft | 279 kts | 338° |
| 2026-05-05 17:23 | 48.76701 | 9.02759 | 7453 ft | 282 kts | 337° |
| 2026-05-05 17:23 | 48.78596 | 9.01798 | 8281 ft | 287 kts | 336° |
| 2026-05-05 17:23 | 48.80464 | 9.00755 | 9136 ft | 291 kts | 335° |
| 2026-05-05 17:24 | 48.82369 | 8.99647 | 9968 ft | 295 kts | 334° |
| 2026-05-05 17:24 | 48.84344 | 8.98482 | 10405 ft | 314 kts | 334° |
| 2026-05-05 17:24 | 48.86453 | 8.97232 | 10695 ft | 337 kts | 335° |
| 2026-05-05 17:24 | 48.88692 | 8.95910 | 11140 ft | 352 kts | 335° |
| 2026-05-05 17:25 | 48.90997 | 8.94553 | 11836 ft | 359 kts | 335° |
| 2026-05-05 17:25 | 48.92548 | 8.93641 | 12357 ft | 362 kts | 335° |
| 2026-05-05 17:25 | 48.95714 | 8.91774 | 13345 ft | 368 kts | 335° |
| 2026-05-05 17:25 | 48.98107 | 8.90351 | 13734 ft | 369 kts | 335° |
| 2026-05-05 17:26 | 49.00468 | 8.88944 | 13818 ft | 370 kts | 335° |
| 2026-05-05 17:26 | 49.02911 | 8.87485 | 13818 ft | 371 kts | 335° |
| 2026-05-05 17:26 | 49.05319 | 8.86045 | 14112 ft | 375 kts | 335° |
| 2026-05-05 17:26 | 49.07745 | 8.84591 | 14836 ft | 378 kts | 335° |
| 2026-05-05 17:27 | 49.10207 | 8.83114 | 15556 ft | 382 kts | 336° |
| 2026-05-05 17:27 | 49.12693 | 8.81622 | 16242 ft | 386 kts | 336° |
| 2026-05-05 17:27 | 49.15237 | 8.80224 | 16917 ft | 392 kts | 342° |
| 2026-05-05 17:27 | 49.17941 | 8.79573 | 17585 ft | 398 kts | 356° |
| 2026-05-05 17:28 | 49.20718 | 8.79571 | 18228 ft | 403 kts | 1° |
| 2026-05-05 17:28 | 49.23526 | 8.79869 | 18789 ft | 407 kts | 4° |
| 2026-05-05 17:28 | 49.26365 | 8.80317 | 19356 ft | 410 kts | 5° |
| 2026-05-05 17:28 | 49.29210 | 8.80806 | 19926 ft | 413 kts | 6° |
| 2026-05-05 17:29 | 49.32077 | 8.81288 | 20485 ft | 416 kts | 5° |
| 2026-05-05 17:29 | 49.34970 | 8.81747 | 21056 ft | 419 kts | 5° |
| 2026-05-05 17:29 | 49.37890 | 8.82181 | 21652 ft | 422 kts | 5° |
| 2026-05-05 17:29 | 49.40826 | 8.82604 | 22231 ft | 426 kts | 5° |
| 2026-05-05 17:30 | 49.43791 | 8.83015 | 22720 ft | 430 kts | 5° |
| 2026-05-05 17:30 | 49.46776 | 8.83421 | 23226 ft | 433 kts | 5° |
| 2026-05-05 17:30 | 49.49797 | 8.83829 | 23670 ft | 436 kts | 5° |
| 2026-05-05 17:30 | 49.52802 | 8.83927 | 24061 ft | 440 kts | 357° |
| 2026-05-05 17:31 | 49.55848 | 8.83274 | 24457 ft | 442 kts | 346° |
| 2026-05-05 17:31 | 49.58753 | 8.81744 | 24843 ft | 445 kts | 334° |
| 2026-05-05 17:31 | 49.61413 | 8.79291 | 25219 ft | 446 kts | 321° |
| 2026-05-05 17:31 | 49.63701 | 8.76054 | 25606 ft | 448 kts | 313° |
| 2026-05-05 17:32 | 49.65812 | 8.72479 | 26002 ft | 450 kts | 310° |
| 2026-05-05 17:32 | 49.67832 | 8.68769 | 26350 ft | 453 kts | 308° |
| 2026-05-05 17:32 | 49.69819 | 8.64986 | 26672 ft | 456 kts | 308° |
| 2026-05-05 17:32 | 49.71894 | 8.61243 | 27003 ft | 459 kts | 314° |
| 2026-05-05 17:33 | 49.74204 | 8.57824 | 27330 ft | 462 kts | 315° |
| 2026-05-05 17:33 | 49.76499 | 8.54408 | 27623 ft | 464 kts | 315° |
| 2026-05-05 17:33 | 49.78826 | 8.50919 | 27930 ft | 467 kts | 315° |
| 2026-05-05 17:33 | 49.81167 | 8.47406 | 28233 ft | 469 kts | 314° |
| 2026-05-05 17:34 | 49.83312 | 8.43587 | 28555 ft | 471 kts | 306° |
| 2026-05-05 17:34 | 49.85143 | 8.39381 | 28892 ft | 471 kts | 299° |
| 2026-05-05 17:34 | 49.86781 | 8.34954 | 29329 ft | 470 kts | 297° |
| 2026-05-05 17:34 | 49.88321 | 8.30492 | 29741 ft | 469 kts | 296° |
| 2026-05-05 17:35 | 49.89802 | 8.25986 | 30080 ft | 469 kts | 295° |
| 2026-05-05 17:35 | 49.91247 | 8.21460 | 30381 ft | 469 kts | 294° |
| 2026-05-05 17:35 | 49.92684 | 8.16902 | 30719 ft | 469 kts | 294° |
| 2026-05-05 17:35 | 49.94109 | 8.12363 | 31021 ft | 469 kts | 294° |
| 2026-05-05 17:36 | 49.95546 | 8.07791 | 31350 ft | 469 kts | 294° |
| 2026-05-05 17:36 | 49.96977 | 8.03246 | 31647 ft | 468 kts | 294° |
| 2026-05-05 17:36 | 49.98393 | 7.98756 | 31933 ft | 468 kts | 294° |
| 2026-05-05 17:36 | 49.99824 | 7.94217 | 32221 ft | 468 kts | 294° |
| 2026-05-05 17:37 | 50.01257 | 7.89666 | 32508 ft | 467 kts | 294° |
| 2026-05-05 17:37 | 50.02220 | 7.86607 | 32707 ft | 467 kts | 294° |
| 2026-05-05 17:37 | 50.04108 | 7.80596 | 33071 ft | 467 kts | 294° |
| 2026-05-05 17:37 | 50.05530 | 7.76058 | 33346 ft | 466 kts | 294° |
| 2026-05-05 17:38 | 50.06953 | 7.71507 | 33551 ft | 467 kts | 293° |
| 2026-05-05 17:38 | 50.08376 | 7.66950 | 33790 ft | 468 kts | 293° |
| 2026-05-05 17:38 | 50.09800 | 7.62379 | 33818 ft | 468 kts | 293° |
| 2026-05-05 17:39 | 50.12630 | 7.53271 | 33814 ft | 467 kts | 293° |
| 2026-05-05 17:39 | 50.15450 | 7.44162 | 33822 ft | 466 kts | 293° |
| 2026-05-05 17:40 | 50.18250 | 7.35085 | 33816 ft | 466 kts | 293° |
| 2026-05-05 17:40 | 50.21054 | 7.25957 | 33803 ft | 466 kts | 292° |
| 2026-05-05 17:41 | 50.23854 | 7.16813 | 33803 ft | 466 kts | 292° |
| 2026-05-05 17:41 | 50.26647 | 7.07655 | 33802 ft | 466 kts | 292° |
| 2026-05-05 17:42 | 50.29411 | 6.98560 | 33804 ft | 466 kts | 292° |
| 2026-05-05 17:42 | 50.32189 | 6.89381 | 33814 ft | 466 kts | 292° |
| 2026-05-05 17:43 | 50.34954 | 6.80212 | 33807 ft | 466 kts | 292° |
| 2026-05-05 17:43 | 50.37736 | 6.70951 | 33803 ft | 466 kts | 292° |
| 2026-05-05 17:44 | 50.40463 | 6.61840 | 33799 ft | 466 kts | 292° |
| 2026-05-05 17:44 | 50.43203 | 6.52649 | 33799 ft | 466 kts | 292° |
| 2026-05-05 17:45 | 50.45944 | 6.43423 | 33807 ft | 466 kts | 292° |
| 2026-05-05 17:45 | 50.48672 | 6.34205 | 33805 ft | 465 kts | 292° |
| 2026-05-05 17:46 | 50.51387 | 6.24993 | 33812 ft | 464 kts | 291° |
| 2026-05-05 17:46 | 50.54095 | 6.15769 | 33820 ft | 464 kts | 291° |
| 2026-05-05 17:47 | 50.56793 | 6.06547 | 33825 ft | 464 kts | 291° |
| 2026-05-05 17:47 | 50.59481 | 5.97322 | 33833 ft | 463 kts | 291° |
| 2026-05-05 17:48 | 50.62163 | 5.88085 | 33827 ft | 463 kts | 291° |
| 2026-05-05 17:48 | 50.64817 | 5.78903 | 33834 ft | 463 kts | 291° |
| 2026-05-05 17:49 | 50.67485 | 5.69640 | 33847 ft | 463 kts | 291° |
| 2026-05-05 17:49 | 50.70143 | 5.60375 | 33871 ft | 463 kts | 291° |
| 2026-05-05 17:50 | 50.72355 | 5.52640 | 33851 ft | 460 kts | 291° |
| 2026-05-05 17:50 | 50.74956 | 5.43512 | 33869 ft | 458 kts | 291° |
| 2026-05-05 17:51 | 50.77557 | 5.34347 | 33850 ft | 456 kts | 290° |
| 2026-05-05 17:51 | 50.80138 | 5.25217 | 33851 ft | 455 kts | 290° |
| 2026-05-05 17:52 | 50.82714 | 5.16066 | 33871 ft | 455 kts | 290° |
| 2026-05-05 17:52 | 50.85278 | 5.06925 | 33862 ft | 454 kts | 290° |
| 2026-05-05 17:53 | 50.87829 | 4.97793 | 33864 ft | 454 kts | 290° |
| 2026-05-05 17:53 | 50.90374 | 4.88652 | 33868 ft | 454 kts | 290° |
| 2026-05-05 17:54 | 50.92900 | 4.79538 | 33867 ft | 454 kts | 290° |
| 2026-05-05 17:54 | 50.95431 | 4.70372 | 33879 ft | 454 kts | 290° |
| 2026-05-05 17:55 | 50.97948 | 4.61224 | 33885 ft | 452 kts | 290° |
| 2026-05-05 17:55 | 51.00455 | 4.52075 | 33883 ft | 451 kts | 290° |
| 2026-05-05 17:56 | 51.02954 | 4.42920 | 33881 ft | 451 kts | 290° |
| 2026-05-05 17:56 | 51.05443 | 4.33764 | 33880 ft | 451 kts | 290° |
| 2026-05-05 17:57 | 51.07914 | 4.24636 | 33876 ft | 451 kts | 290° |
| 2026-05-05 17:57 | 51.10389 | 4.15461 | 33876 ft | 451 kts | 290° |
| 2026-05-05 17:58 | 51.12856 | 4.06276 | 33875 ft | 451 kts | 290° |
| 2026-05-05 17:58 | 51.15303 | 3.97131 | 33870 ft | 451 kts | 290° |
| 2026-05-05 17:59 | 51.17762 | 3.87906 | 33867 ft | 451 kts | 290° |
| 2026-05-05 17:59 | 51.20197 | 3.78733 | 33880 ft | 451 kts | 290° |
| 2026-05-05 18:00 | 51.22621 | 3.69559 | 33869 ft | 452 kts | 289° |
| 2026-05-05 18:00 | 51.24378 | 3.59981 | 33879 ft | 449 kts | 280° |
| 2026-05-05 18:01 | 51.25733 | 3.50245 | 33878 ft | 448 kts | 279° |
| 2026-05-05 18:01 | 51.27000 | 3.40499 | 33885 ft | 448 kts | 278° |
| 2026-05-05 18:02 | 51.28244 | 3.30750 | 33895 ft | 448 kts | 278° |
| 2026-05-05 18:02 | 51.29479 | 3.21043 | 33903 ft | 448 kts | 278° |
| 2026-05-05 18:03 | 51.30718 | 3.11297 | 33905 ft | 446 kts | 278° |
| 2026-05-05 18:03 | 51.31947 | 3.01576 | 33903 ft | 446 kts | 278° |
| 2026-05-05 18:03 | 51.32563 | 2.96669 | 33479 ft | 451 kts | 278° |
| 2026-05-05 18:04 | 51.33179 | 2.91737 | 32511 ft | 456 kts | 278° |
| 2026-05-05 18:04 | 51.33794 | 2.86797 | 31540 ft | 460 kts | 278° |
| 2026-05-05 18:04 | 51.34421 | 2.81759 | 30751 ft | 461 kts | 278° |
| 2026-05-05 18:04 | 51.35044 | 2.76749 | 30022 ft | 459 kts | 278° |
| 2026-05-05 18:05 | 51.35662 | 2.71767 | 29415 ft | 453 kts | 279° |
| 2026-05-05 18:05 | 51.36271 | 2.66862 | 28864 ft | 445 kts | 278° |
| 2026-05-05 18:05 | 51.36868 | 2.62023 | 28334 ft | 438 kts | 278° |
| 2026-05-05 18:05 | 51.37452 | 2.57270 | 27806 ft | 432 kts | 278° |
| 2026-05-05 18:06 | 51.38025 | 2.52592 | 27278 ft | 426 kts | 279° |
| 2026-05-05 18:06 | 51.38401 | 2.49510 | 26928 ft | 422 kts | 277° |
| 2026-05-05 18:06 | 51.39145 | 2.43387 | 26234 ft | 416 kts | 279° |
| 2026-05-05 18:06 | 51.39691 | 2.38863 | 25724 ft | 411 kts | 278° |
| 2026-05-05 18:07 | 51.40228 | 2.34395 | 25210 ft | 407 kts | 279° |
| 2026-05-05 18:07 | 51.40759 | 2.29954 | 24702 ft | 402 kts | 279° |
| 2026-05-05 18:07 | 51.41284 | 2.25569 | 24203 ft | 399 kts | 279° |
| 2026-05-05 18:07 | 51.41794 | 2.21292 | 23709 ft | 395 kts | 279° |
| 2026-05-05 18:08 | 51.42308 | 2.16976 | 23155 ft | 392 kts | 279° |
| 2026-05-05 18:08 | 51.42816 | 2.12700 | 22623 ft | 387 kts | 279° |
| 2026-05-05 18:08 | 51.43313 | 2.08490 | 22137 ft | 382 kts | 279° |
| 2026-05-05 18:08 | 51.43802 | 2.04345 | 21650 ft | 377 kts | 279° |
| 2026-05-05 18:09 | 51.44287 | 2.00234 | 21160 ft | 372 kts | 280° |
| 2026-05-05 18:09 | 51.44778 | 1.96186 | 20674 ft | 368 kts | 280° |
| 2026-05-05 18:09 | 51.45275 | 1.92169 | 20214 ft | 365 kts | 281° |
| 2026-05-05 18:09 | 51.45770 | 1.88187 | 19743 ft | 362 kts | 281° |
| 2026-05-05 18:10 | 51.46236 | 1.84290 | 19275 ft | 359 kts | 281° |
| 2026-05-05 18:10 | 51.46696 | 1.80356 | 18816 ft | 357 kts | 281° |
| 2026-05-05 18:10 | 51.47149 | 1.76449 | 18340 ft | 355 kts | 281° |
| 2026-05-05 18:10 | 51.47597 | 1.72563 | 17835 ft | 353 kts | 281° |
| 2026-05-05 18:11 | 51.48041 | 1.68704 | 17370 ft | 350 kts | 281° |
| 2026-05-05 18:11 | 51.48474 | 1.64870 | 16915 ft | 347 kts | 279° |
| 2026-05-05 18:11 | 51.48582 | 1.61028 | 16467 ft | 344 kts | 263° |
| 2026-05-05 18:11 | 51.48037 | 1.57325 | 16030 ft | 340 kts | 251° |
| 2026-05-05 18:12 | 51.47244 | 1.53750 | 15586 ft | 338 kts | 249° |
| 2026-05-05 18:12 | 51.46418 | 1.50226 | 15113 ft | 337 kts | 249° |
| 2026-05-05 18:12 | 51.45594 | 1.46719 | 14688 ft | 335 kts | 249° |
| 2026-05-05 18:12 | 51.44791 | 1.43284 | 14285 ft | 332 kts | 249° |
| 2026-05-05 18:13 | 51.43934 | 1.39838 | 13995 ft | 336 kts | 243° |
| 2026-05-05 18:13 | 51.42610 | 1.36741 | 13939 ft | 339 kts | 225° |
| 2026-05-05 18:13 | 51.40826 | 1.34289 | 13934 ft | 339 kts | 217° |
| 2026-05-05 18:13 | 51.38931 | 1.32033 | 13935 ft | 339 kts | 216° |
| 2026-05-05 18:14 | 51.37023 | 1.29808 | 13938 ft | 340 kts | 216° |
| 2026-05-05 18:14 | 51.35110 | 1.27574 | 13939 ft | 340 kts | 216° |
| 2026-05-05 18:14 | 51.33202 | 1.25338 | 13935 ft | 340 kts | 216° |
| 2026-05-05 18:14 | 51.31295 | 1.23094 | 13934 ft | 341 kts | 216° |
| 2026-05-05 18:15 | 51.29406 | 1.20871 | 13930 ft | 343 kts | 215° |
| 2026-05-05 18:15 | 51.27467 | 1.18591 | 13931 ft | 335 kts | 216° |
| 2026-05-05 18:15 | 51.25648 | 1.16451 | 13936 ft | 315 kts | 216° |
| 2026-05-05 18:15 | 51.23954 | 1.14459 | 13921 ft | 298 kts | 216° |
| 2026-05-05 18:16 | 51.22317 | 1.12536 | 13786 ft | 286 kts | 215° |
| 2026-05-05 18:16 | 51.20727 | 1.10671 | 13462 ft | 282 kts | 215° |
| 2026-05-05 18:16 | 51.19158 | 1.08833 | 13106 ft | 278 kts | 216° |
| 2026-05-05 18:16 | 51.17597 | 1.07006 | 12620 ft | 280 kts | 216° |
| 2026-05-05 18:17 | 51.16003 | 1.05141 | 11875 ft | 291 kts | 216° |
| 2026-05-05 18:17 | 51.14333 | 1.03189 | 11202 ft | 299 kts | 217° |
| 2026-05-05 18:17 | 51.12644 | 1.01216 | 10950 ft | 302 kts | 217° |
| 2026-05-05 18:17 | 51.10947 | 0.99235 | 10787 ft | 302 kts | 217° |
| 2026-05-05 18:18 | 51.09278 | 0.97288 | 10648 ft | 301 kts | 217° |
| 2026-05-05 18:18 | 51.07571 | 0.95298 | 10488 ft | 300 kts | 218° |
| 2026-05-05 18:18 | 51.06030 | 0.93157 | 10333 ft | 297 kts | 231° |
| 2026-05-05 18:18 | 51.04899 | 0.90448 | 10035 ft | 293 kts | 244° |
| 2026-05-05 18:19 | 51.04006 | 0.87551 | 9969 ft | 292 kts | 247° |
| 2026-05-05 18:19 | 51.03148 | 0.84624 | 9972 ft | 292 kts | 246° |
| 2026-05-05 18:19 | 51.02288 | 0.81698 | 9982 ft | 292 kts | 247° |
| 2026-05-05 18:19 | 51.01423 | 0.78768 | 9990 ft | 292 kts | 246° |
| 2026-05-05 18:20 | 51.00555 | 0.75851 | 9994 ft | 292 kts | 247° |
| 2026-05-05 18:20 | 50.99691 | 0.72956 | 9995 ft | 285 kts | 246° |
| 2026-05-05 18:20 | 50.98867 | 0.70210 | 10005 ft | 266 kts | 246° |
| 2026-05-05 18:20 | 50.98093 | 0.67632 | 10010 ft | 258 kts | 247° |
| 2026-05-05 18:21 | 50.97320 | 0.65063 | 10013 ft | 258 kts | 246° |
| 2026-05-05 18:21 | 50.96548 | 0.62496 | 10012 ft | 259 kts | 247° |
| 2026-05-05 18:21 | 50.95771 | 0.59913 | 10013 ft | 259 kts | 246° |
| 2026-05-05 18:21 | 50.94994 | 0.57333 | 10013 ft | 259 kts | 246° |
| 2026-05-05 18:22 | 50.94312 | 0.54701 | 10005 ft | 257 kts | 259° |
| 2026-05-05 18:22 | 50.94171 | 0.51916 | 10015 ft | 254 kts | 273° |
| 2026-05-05 18:22 | 50.94270 | 0.49117 | 10017 ft | 254 kts | 276° |
| 2026-05-05 18:22 | 50.94401 | 0.46318 | 10014 ft | 254 kts | 275° |
| 2026-05-05 18:23 | 50.94533 | 0.43564 | 10020 ft | 254 kts | 276° |
| 2026-05-05 18:23 | 50.94679 | 0.40772 | 10024 ft | 255 kts | 276° |
| 2026-05-05 18:23 | 50.94823 | 0.37972 | 10022 ft | 255 kts | 276° |
| 2026-05-05 18:23 | 50.94956 | 0.35173 | 10023 ft | 254 kts | 276° |
| 2026-05-05 18:24 | 50.95087 | 0.32368 | 10020 ft | 254 kts | 276° |
| 2026-05-05 18:24 | 50.95223 | 0.29579 | 9823 ft | 254 kts | 276° |
| 2026-05-05 18:24 | 50.95364 | 0.26782 | 9387 ft | 253 kts | 276° |
| 2026-05-05 18:24 | 50.95492 | 0.24015 | 9067 ft | 250 kts | 276° |
| 2026-05-05 18:25 | 50.95611 | 0.21271 | 9004 ft | 249 kts | 276° |
| 2026-05-05 18:25 | 50.95696 | 0.19450 | 8997 ft | 250 kts | 276° |
| 2026-05-05 18:25 | 50.95871 | 0.15767 | 8998 ft | 251 kts | 276° |
| 2026-05-05 18:25 | 50.95997 | 0.13008 | 8988 ft | 251 kts | 276° |
| 2026-05-05 18:26 | 50.96118 | 0.10243 | 8977 ft | 250 kts | 276° |
| 2026-05-05 18:26 | 50.96235 | 0.07492 | 8971 ft | 250 kts | 275° |
| 2026-05-05 18:26 | 50.96356 | 0.04769 | 8814 ft | 251 kts | 276° |
| 2026-05-05 18:26 | 50.96470 | 0.02000 | 8386 ft | 250 kts | 276° |
| 2026-05-05 18:27 | 50.96578 | -0.00739 | 8039 ft | 248 kts | 276° |
| 2026-05-05 18:27 | 50.96691 | -0.03456 | 7665 ft | 246 kts | 276° |
| 2026-05-05 18:27 | 50.96806 | -0.06139 | 7299 ft | 244 kts | 276° |
| 2026-05-05 18:27 | 50.96915 | -0.08827 | 6932 ft | 243 kts | 276° |
| 2026-05-05 18:28 | 50.97117 | -0.14142 | 6222 ft | 240 kts | 276° |
| 2026-05-05 18:28 | 50.97213 | -0.16779 | 5842 ft | 239 kts | 276° |
| 2026-05-05 18:28 | 50.97308 | -0.19403 | 5466 ft | 238 kts | 276° |
| 2026-05-05 18:29 | 50.97405 | -0.22027 | 5091 ft | 237 kts | 276° |
| 2026-05-05 18:29 | 50.97499 | -0.24632 | 4737 ft | 236 kts | 276° |
| 2026-05-05 18:29 | 50.97595 | -0.27228 | 4348 ft | 235 kts | 276° |
| 2026-05-05 18:29 | 50.97695 | -0.29814 | 3984 ft | 234 kts | 276° |
| 2026-05-05 18:30 | 50.97797 | -0.32385 | 3666 ft | 233 kts | 276° |
| 2026-05-05 18:30 | 50.98011 | -0.34917 | 3489 ft | 230 kts | 291° |
| 2026-05-05 18:30 | 50.98719 | -0.37165 | 3321 ft | 228 kts | 304° |
| 2026-05-05 18:30 | 50.99569 | -0.39255 | 3139 ft | 228 kts | 306° |
| 2026-05-05 18:31 | 51.00451 | -0.41351 | 3008 ft | 228 kts | 306° |
| 2026-05-05 18:31 | 51.01336 | -0.43451 | 2991 ft | 228 kts | 306° |
| 2026-05-05 18:31 | 51.02220 | -0.45547 | 2987 ft | 229 kts | 306° |
| 2026-05-05 18:31 | 51.03108 | -0.47638 | 2987 ft | 229 kts | 306° |
| 2026-05-05 18:32 | 51.04001 | -0.49732 | 2989 ft | 228 kts | 306° |
| 2026-05-05 18:32 | 51.04934 | -0.51787 | 2980 ft | 227 kts | 316° |
| 2026-05-05 18:32 | 51.06260 | -0.53024 | 2987 ft | 221 kts | 349° |
| 2026-05-05 18:32 | 51.07743 | -0.52901 | 2984 ft | 216 kts | 22° |
| 2026-05-05 18:33 | 51.08969 | -0.51546 | 2998 ft | 216 kts | 45° |
| 2026-05-05 18:33 | 51.09952 | -0.49744 | 3017 ft | 215 kts | 51° |
| 2026-05-05 18:33 | 51.10725 | -0.47814 | 3006 ft | 200 kts | 64° |
| 2026-05-05 18:33 | 51.11137 | -0.45836 | 3000 ft | 177 kts | 75° |
| 2026-05-05 18:34 | 51.11385 | -0.44016 | 2998 ft | 164 kts | 75° |
| 2026-05-05 18:34 | 51.11624 | -0.42242 | 2974 ft | 163 kts | 75° |
| 2026-05-05 18:34 | 51.11872 | -0.40484 | 2787 ft | 163 kts | 75° |
| 2026-05-05 18:34 | 51.12117 | -0.38725 | 2545 ft | 162 kts | 76° |
| 2026-05-05 18:35 | 51.12357 | -0.36968 | 2317 ft | 162 kts | 76° |
| 2026-05-05 18:35 | 51.12516 | -0.35808 | 2165 ft | 161 kts | 76° |
| 2026-05-05 18:35 | 51.12828 | -0.33536 | 1897 ft | 156 kts | 77° |
| 2026-05-05 18:35 | 51.13059 | -0.31852 | 1672 ft | 154 kts | 77° |
| 2026-05-05 18:36 | 51.13276 | -0.30269 | 1461 ft | 140 kts | 77° |
| 2026-05-05 18:36 | 51.13410 | -0.29295 | 1334 ft | 132 kts | 77° |
| 2026-05-05 18:36 | 51.13602 | -0.27888 | 1160 ft | 130 kts | 77° |
| 2026-05-05 18:36 | 51.13786 | -0.26472 | 982 ft | 131 kts | 79° |
| 2026-05-05 18:37 | 51.13987 | -0.25056 | 762 ft | 130 kts | 76° |
| 2026-05-05 18:37 | 51.14178 | -0.23645 | 626 ft | 131 kts | 78° |
| 2026-05-05 18:37 | 51.14371 | -0.22238 | 407 ft | 131 kts | 78° |
| 2026-05-05 18:37 | 51.14567 | -0.20839 | 285 ft | 129 kts | 77° |
| 2026-05-05 18:38 | 51.14755 | -0.19441 | 218 ft | 126 kts | 78° |
| 2026-05-05 18:38 | 51.14908 | -0.18323 | 208 ft | 80 kts | 77° |
| 2026-05-05 18:38 | 51.14991 | -0.17753 | 213 ft | 42 kts | 78° |
| 2026-05-05 18:38 | 51.15074 | -0.17315 | 215 ft | 40 kts | 60° |
| 2026-05-05 18:39 | 51.15158 | -0.17202 | 216 ft | 1 kts | 346° |
| 2026-05-05 18:39 | 51.15188 | -0.17230 | 217 ft | 9 kts | 328° |
| 2026-05-05 18:39 | 51.15210 | -0.17271 | 217 ft | 0 kts | 307° |
| 2026-05-05 18:40 | 51.15224 | -0.17298 | 213 ft | 7 kts | 311° |
| 2026-05-05 18:41 | 51.15283 | -0.17343 | 210 ft | 11 kts | 359° |
| 2026-05-05 18:41 | 51.15311 | -0.17281 | 214 ft | 8 kts | 78° |
| 2026-05-05 18:41 | 51.15326 | -0.17167 | 214 ft | 14 kts | 78° |
| 2026-05-05 18:41 | 51.15352 | -0.16987 | 207 ft | 19 kts | 77° |
| 2026-05-05 18:42 | 51.15383 | -0.16763 | 212 ft | 23 kts | 78° |
| 2026-05-05 18:42 | 51.15417 | -0.16546 | 211 ft | 9 kts | 59° |
| 2026-05-05 18:42 | 51.15440 | -0.16468 | 209 ft | 7 kts | 79° |
| 2026-05-05 18:42 | 51.15443 | -0.16443 | 207 ft | 2 kts | 79° |
| 2026-05-05 18:43 | 51.15444 | -0.16434 | 210 ft | 0 kts | 79° |
| 2026-05-05 18:43 | 51.15444 | -0.16433 | 210 ft | 0 kts | 79° |
| 2026-05-05 18:43 | 51.15445 | -0.16427 | 212 ft | 1 kts | 77° |
| 2026-05-05 18:43 | 51.15445 | -0.16423 | 212 ft | 0 kts | 77° |